createdAt,value
2019-02-08T00:03:04.709Z,3.58
2019-02-08T00:07:08.456Z,3.68
2019-02-08T00:11:11.910Z,3.85
2019-02-08T00:15:15.361Z,4.01
2019-02-08T00:19:18.819Z,4.12
2019-02-08T00:23:26.695Z,4.20
2019-02-08T00:27:28.422Z,4.28
2019-02-08T00:31:31.892Z,4.37
2019-02-08T00:35:35.347Z,4.48
2019-02-08T00:39:38.810Z,4.62
2019-02-08T00:43:42.263Z,4.69
2019-02-08T00:47:45.721Z,4.70
2019-02-08T00:51:49.182Z,4.70
2019-02-08T00:55:52.630Z,4.74
2019-02-08T00:59:56.085Z,4.67
2019-02-08T01:03:59.562Z,4.61
2019-02-08T01:08:03.015Z,4.63
2019-02-08T01:12:06.454Z,4.68
2019-02-08T01:16:09.912Z,4.71
2019-02-08T01:20:13.364Z,4.80
2019-02-08T01:24:16.817Z,4.79
2019-02-08T01:28:20.270Z,4.69
2019-02-08T01:32:23.711Z,4.61
2019-02-08T01:36:27.166Z,4.47
2019-02-08T01:40:30.649Z,4.30
2019-02-08T01:44:34.100Z,4.16
2019-02-08T01:48:37.560Z,4.01
2019-02-08T01:52:41.012Z,4.02
2019-02-08T01:56:44.470Z,4.12
2019-02-08T02:00:47.924Z,4.38
2019-02-08T02:04:51.542Z,4.64
2019-02-08T02:08:55.000Z,4.78
2019-02-08T02:12:58.451Z,4.81
2019-02-08T02:17:01.902Z,4.75
2019-02-08T02:21:05.385Z,4.67
2019-02-08T02:25:08.829Z,4.58
2019-02-08T02:29:13.355Z,4.48
2019-02-08T02:33:16.811Z,4.57
2019-02-08T02:37:20.258Z,4.68
2019-02-08T02:41:23.712Z,4.71
2019-02-08T02:45:27.172Z,4.68
2019-02-08T02:49:30.614Z,4.71
2019-02-08T02:53:34.078Z,4.62
2019-02-08T02:57:37.538Z,4.52
2019-02-08T03:01:41.005Z,4.41
2019-02-08T03:05:44.456Z,4.32
2019-02-08T03:09:47.915Z,4.27
2019-02-08T03:13:51.382Z,4.25
2019-02-08T03:17:54.841Z,4.24
2019-02-08T03:21:58.285Z,4.25
2019-02-08T03:26:01.740Z,4.27
2019-02-08T03:30:05.182Z,4.25
2019-02-08T03:34:08.634Z,4.25
2019-02-08T03:38:12.102Z,4.18
2019-02-08T03:42:15.552Z,4.15
2019-02-08T03:46:19.013Z,4.10
2019-02-08T03:50:22.513Z,4.11
2019-02-08T03:54:25.973Z,4.09
2019-02-08T03:58:29.421Z,4.07
2019-02-08T04:02:32.878Z,4.02
2019-02-08T04:06:36.322Z,4.05
2019-02-08T04:10:39.785Z,4.13
2019-02-08T04:14:43.237Z,4.13
2019-02-08T04:18:46.690Z,4.16
2019-02-08T04:22:50.142Z,4.24
2019-02-08T04:26:53.591Z,4.44
2019-02-08T04:30:57.041Z,4.64
2019-02-08T04:35:00.574Z,4.69
2019-02-08T04:39:04.717Z,4.71
2019-02-08T04:43:08.162Z,4.76
2019-02-08T04:47:11.618Z,4.78
2019-02-08T04:51:15.081Z,4.79
2019-02-08T04:55:18.536Z,4.83
2019-02-08T04:59:21.996Z,4.87
2019-02-08T05:03:25.447Z,4.89
2019-02-08T05:07:28.910Z,4.90
2019-02-08T05:11:32.368Z,4.88
2019-02-08T05:15:35.825Z,4.87
2019-02-08T05:19:39.276Z,4.89
2019-02-08T05:23:42.720Z,4.90
2019-02-08T05:27:46.177Z,4.86
2019-02-08T05:31:49.633Z,4.84
2019-02-08T05:35:53.107Z,4.84
2019-02-08T05:39:56.587Z,4.88
2019-02-08T05:44:00.039Z,4.88
2019-02-08T05:48:03.497Z,4.86
2019-02-08T05:52:06.956Z,4.78
2019-02-08T05:56:10.411Z,4.69
2019-02-08T06:00:14.019Z,4.58
2019-02-08T06:04:17.461Z,4.42
2019-02-08T06:08:20.915Z,4.32
2019-02-08T06:12:24.845Z,4.22
2019-02-08T06:16:28.305Z,4.20
2019-02-08T06:20:31.765Z,4.16
2019-02-08T06:24:35.222Z,4.16
2019-02-08T06:28:38.682Z,4.15
2019-02-08T06:32:42.147Z,4.18
2019-02-08T06:36:45.606Z,4.24
2019-02-08T06:40:49.057Z,4.33
2019-02-08T06:44:52.507Z,4.41
2019-02-08T06:48:55.963Z,4.49
2019-02-08T06:52:59.418Z,4.56
2019-02-08T06:57:04.526Z,4.75
2019-02-08T07:01:09.617Z,4.84
2019-02-08T07:05:20.496Z,4.90
2019-02-08T07:09:31.577Z,4.93
2019-02-08T07:13:42.629Z,5.00
2019-02-08T07:17:47.722Z,5.07
2019-02-08T07:22:04.828Z,5.14
2019-02-08T07:26:09.918Z,5.21
2019-02-08T07:30:15.018Z,5.29
2019-02-08T07:34:26.036Z,5.37
2019-02-08T07:38:31.142Z,5.41
2019-02-08T07:42:48.191Z,5.45
2019-02-08T07:47:02.095Z,5.53
2019-02-08T07:51:10.153Z,5.58
2019-02-08T07:55:15.263Z,5.67
2019-02-08T07:59:23.465Z,5.76
2019-02-08T08:03:46.750Z,5.84
2019-02-08T08:07:57.761Z,5.87
2019-02-08T08:12:02.869Z,5.93
2019-02-08T08:16:23.199Z,5.98
2019-02-08T08:20:28.304Z,6.01
2019-02-08T08:24:45.727Z,6.06
2019-02-08T08:29:02.831Z,6.13
2019-02-08T08:33:07.579Z,6.18
2019-02-08T08:37:11.028Z,6.24
2019-02-08T08:41:14.484Z,6.24
2019-02-08T08:45:17.947Z,6.16
2019-02-08T08:49:21.402Z,6.11
2019-02-08T08:53:24.863Z,6.10
2019-02-08T08:57:28.327Z,6.08
2019-02-08T09:01:31.801Z,6.05
2019-02-08T09:05:35.272Z,5.98
2019-02-08T09:09:38.793Z,5.97
2019-02-08T09:13:42.199Z,6.02
2019-02-08T09:17:45.655Z,6.09
2019-02-08T09:21:49.121Z,6.14
2019-02-08T09:25:52.581Z,6.17
2019-02-08T09:29:56.043Z,6.17
2019-02-08T09:33:59.493Z,6.18
2019-02-08T09:38:02.952Z,6.17
2019-02-08T09:42:06.406Z,6.19
2019-02-08T09:46:09.872Z,6.30
2019-02-08T09:50:13.349Z,6.35
2019-02-08T09:54:16.812Z,6.38
2019-02-08T09:58:20.264Z,6.37
2019-02-08T10:02:23.751Z,6.34
2019-02-08T10:06:27.188Z,6.30
2019-02-08T10:10:30.643Z,6.35
2019-02-08T10:14:34.106Z,6.43
2019-02-08T10:18:37.607Z,6.56
2019-02-08T10:22:41.021Z,6.62
2019-02-08T10:26:44.487Z,6.66
2019-02-08T10:30:47.953Z,6.66
2019-02-08T10:34:51.417Z,6.74
2019-02-08T10:38:54.876Z,6.77
2019-02-08T10:42:58.344Z,6.78
2019-02-08T10:47:01.803Z,6.87
2019-02-08T10:51:05.252Z,6.90
2019-02-08T10:55:08.707Z,6.96
2019-02-08T10:59:12.174Z,6.96
2019-02-08T11:03:15.632Z,6.97
2019-02-08T11:07:19.090Z,7.06
2019-02-08T11:11:23.063Z,7.17
2019-02-08T11:15:26.564Z,7.16
2019-02-08T11:19:30.020Z,7.19
2019-02-08T11:23:33.476Z,7.21
2019-02-08T11:27:36.940Z,7.21
2019-02-08T11:31:40.392Z,7.12
2019-02-08T11:35:43.853Z,7.02
2019-02-08T11:39:47.308Z,6.97
2019-02-08T11:43:50.780Z,6.96
2019-02-08T11:47:54.232Z,6.99
2019-02-08T11:51:57.753Z,7.04
2019-02-08T11:56:01.224Z,7.05
2019-02-08T12:00:04.679Z,7.13
2019-02-08T12:04:08.825Z,7.10
2019-02-08T12:08:13.347Z,6.99
2019-02-08T12:12:16.801Z,6.97
2019-02-08T12:16:20.263Z,6.98
2019-02-08T12:20:23.731Z,7.05
2019-02-08T12:24:27.194Z,7.07
2019-02-08T12:28:31.831Z,7.13
2019-02-08T12:32:35.480Z,7.24
2019-02-08T12:36:38.940Z,7.35
2019-02-08T12:40:42.397Z,7.52
2019-02-08T12:44:45.850Z,7.59
2019-02-08T12:48:49.318Z,7.56
2019-02-08T12:52:52.780Z,7.41
2019-02-08T12:56:56.254Z,7.34
2019-02-08T13:00:59.714Z,7.25
2019-02-08T13:05:03.187Z,7.23
2019-02-08T13:09:06.651Z,7.19
2019-02-08T13:13:10.106Z,7.22
2019-02-08T13:17:13.563Z,7.26
2019-02-08T13:21:17.025Z,7.39
2019-02-08T13:25:20.513Z,7.46
2019-02-08T13:29:23.975Z,7.59
2019-02-08T13:33:27.453Z,7.70
2019-02-08T13:37:30.901Z,7.80
2019-02-08T13:41:34.368Z,7.97
2019-02-08T13:45:37.813Z,8.21
2019-02-08T13:49:41.274Z,8.36
2019-02-08T13:53:44.766Z,8.41
2019-02-08T13:57:48.226Z,8.45
2019-02-08T14:01:51.698Z,8.53
2019-02-08T14:05:55.153Z,8.52
2019-02-08T14:09:58.608Z,8.55
2019-02-08T14:14:02.625Z,8.58
2019-02-08T14:18:06.106Z,8.58
2019-02-08T14:22:09.548Z,8.60
2019-02-08T14:26:13.963Z,8.54
2019-02-08T14:30:17.434Z,8.48
2019-02-08T14:34:20.894Z,8.40
2019-02-08T14:38:24.344Z,8.34
2019-02-08T14:42:27.806Z,8.35
2019-02-08T14:46:31.250Z,8.31
2019-02-08T14:50:34.707Z,8.30
2019-02-08T14:54:38.167Z,8.27
2019-02-08T14:58:41.631Z,8.26
2019-02-08T15:02:45.096Z,8.19
2019-02-08T15:06:48.544Z,8.09
2019-02-08T15:10:51.999Z,8.04
2019-02-08T15:14:55.461Z,8.07
2019-02-08T15:18:58.917Z,8.08
2019-02-08T15:23:02.378Z,8.09
2019-02-08T15:27:05.825Z,8.07
2019-02-08T15:31:09.355Z,8.06
2019-02-08T15:35:12.818Z,8.09
2019-02-08T15:39:16.288Z,8.36
2019-02-08T15:43:19.741Z,8.55
2019-02-08T15:47:23.186Z,8.61
2019-02-08T15:51:26.637Z,8.52
2019-02-08T15:55:30.095Z,8.39
2019-02-08T15:59:33.555Z,8.33
2019-02-08T16:03:37.056Z,8.27
2019-02-08T16:07:40.452Z,8.19
2019-02-08T16:11:43.905Z,8.14
2019-02-08T16:15:47.357Z,8.09
2019-02-08T16:19:50.807Z,8.09
2019-02-08T16:23:54.263Z,8.07
2019-02-08T16:27:57.699Z,8.10
2019-02-08T16:32:01.163Z,8.12
2019-02-08T16:36:04.618Z,8.11
2019-02-08T16:40:08.143Z,8.06
2019-02-08T16:44:11.624Z,8.00
2019-02-08T16:48:15.081Z,7.93
2019-02-08T16:52:18.546Z,7.90
2019-02-08T16:56:21.995Z,7.88
2019-02-08T17:00:25.470Z,7.86
2019-02-08T17:04:28.892Z,7.82
2019-02-08T17:08:32.347Z,7.78
2019-02-08T17:12:35.800Z,7.72
2019-02-08T17:16:39.260Z,7.66
2019-02-08T17:20:42.713Z,7.61
2019-02-08T17:24:46.150Z,7.58
2019-02-08T17:28:49.611Z,7.53
2019-02-08T17:32:53.071Z,7.47
2019-02-08T17:36:56.516Z,7.46
2019-02-08T17:40:59.974Z,7.46
2019-02-08T17:45:03.412Z,7.46
2019-02-08T17:49:06.872Z,7.44
2019-02-08T17:53:11.292Z,7.36
2019-02-08T17:57:14.757Z,7.31
2019-02-08T18:01:18.212Z,7.32
2019-02-08T18:05:21.658Z,7.26
2019-02-08T18:09:25.119Z,7.29
2019-02-08T18:13:28.693Z,7.35
2019-02-08T18:17:32.152Z,7.40
2019-02-08T18:21:35.592Z,7.41
2019-02-08T18:25:39.055Z,7.40
2019-02-08T18:29:42.516Z,7.35
2019-02-08T18:33:46.866Z,7.32
2019-02-08T18:37:50.405Z,7.32
2019-02-08T18:41:53.849Z,7.30
2019-02-08T18:45:57.306Z,7.27
2019-02-08T18:50:00.761Z,7.24
2019-02-08T18:54:05.300Z,7.24
2019-02-08T18:58:08.754Z,7.21
2019-02-08T19:02:12.198Z,7.17
2019-02-08T19:06:15.647Z,7.14
2019-02-08T19:10:19.105Z,7.13
2019-02-08T19:14:22.559Z,7.09
2019-02-08T19:18:26.012Z,7.05
2019-02-08T19:22:29.464Z,7.04
2019-02-08T19:26:32.915Z,7.02
2019-02-08T19:30:36.366Z,7.03
2019-02-08T19:34:39.830Z,7.08
2019-02-08T19:38:43.268Z,7.11
2019-02-08T19:42:46.905Z,7.17
2019-02-08T19:46:50.267Z,7.19
2019-02-08T19:50:53.750Z,7.22
2019-02-08T19:54:57.188Z,7.26
2019-02-08T19:59:00.628Z,7.43
2019-02-08T20:03:04.090Z,8.08
2019-02-08T20:07:07.542Z,7.96
2019-02-08T20:11:11.012Z,7.73
2019-02-08T20:15:14.471Z,7.58
2019-02-08T20:19:17.927Z,7.47
2019-02-08T20:23:22.365Z,7.38
2019-02-08T20:27:25.827Z,7.36
2019-02-08T20:31:29.291Z,7.37
2019-02-08T20:35:32.744Z,7.33
2019-02-08T20:39:36.194Z,7.31
2019-02-08T20:43:39.647Z,7.28
2019-02-08T20:47:43.103Z,7.27
2019-02-08T20:51:46.555Z,7.24
2019-02-08T20:55:52.302Z,7.22
2019-02-08T20:59:56.823Z,7.20
2019-02-08T21:04:00.290Z,7.21
2019-02-08T21:08:03.759Z,7.30
2019-02-08T21:12:07.225Z,7.36
2019-02-08T21:16:10.684Z,7.32
2019-02-08T21:20:14.125Z,7.31
2019-02-08T21:24:17.586Z,7.26
2019-02-08T21:28:21.040Z,7.25
2019-02-08T21:32:24.509Z,7.25
2019-02-08T21:36:27.965Z,7.23
2019-02-08T21:40:31.460Z,7.23
2019-02-08T21:44:34.922Z,7.21
2019-02-08T21:48:38.322Z,7.20
2019-02-08T21:52:41.775Z,7.19
2019-02-08T21:56:45.220Z,7.20
2019-02-08T22:00:48.678Z,7.20
2019-02-08T22:04:52.143Z,7.22
2019-02-08T22:08:55.602Z,7.25
2019-02-08T22:12:59.056Z,7.27
2019-02-08T22:17:02.501Z,7.24
2019-02-08T22:21:05.952Z,7.26
2019-02-08T22:25:09.435Z,7.27
2019-02-08T22:29:14.120Z,7.20
2019-02-08T22:33:17.803Z,7.21
2019-02-08T22:37:21.243Z,7.15
2019-02-08T22:41:24.694Z,7.10
2019-02-08T22:45:28.145Z,7.06
2019-02-08T22:49:31.599Z,7.03
2019-02-08T22:53:36.038Z,7.03
2019-02-08T22:57:39.479Z,7.01
2019-02-08T23:01:42.936Z,6.99
2019-02-08T23:05:46.384Z,6.97
2019-02-08T23:09:49.841Z,6.95
2019-02-08T23:13:53.282Z,6.93
2019-02-08T23:17:56.737Z,6.88
2019-02-08T23:22:00.182Z,6.85
2019-02-08T23:26:03.648Z,7.06
2019-02-08T23:30:07.099Z,7.07
2019-02-08T23:34:10.543Z,7.02
2019-02-08T23:38:14.000Z,6.97
2019-02-08T23:42:18.519Z,6.93
2019-02-08T23:46:21.973Z,6.90
2019-02-08T23:50:26.593Z,6.87
2019-02-08T23:54:30.043Z,6.81
2019-02-08T23:58:33.491Z,6.81
